createdAt,value
2022-08-18T00:00:49.079Z,11.93
2022-08-18T00:06:52.695Z,13.75
2022-08-18T00:12:58.676Z,12.65
2022-08-18T00:19:09.411Z,12.88
2022-08-18T00:25:15.380Z,12.80
2022-08-18T00:31:19.162Z,13.07
2022-08-18T00:37:25.879Z,14.18
2022-08-18T00:43:36.800Z,14.02
2022-08-18T00:49:43.082Z,14.10
2022-08-18T00:55:53.794Z,12.88
2022-08-18T01:02:02.632Z,12.75
2022-08-18T01:08:06.329Z,12.27
2022-08-18T01:14:15.908Z,13.70
2022-08-18T01:20:44.351Z,13.40
2022-08-18T01:26:51.001Z,16.98
2022-08-18T01:32:54.614Z,13.75
2022-08-18T01:45:04.654Z,14.03
2022-08-18T01:51:10.824Z,12.20
2022-08-18T01:57:14.698Z,11.88
2022-08-18T02:03:19.608Z,12.50
2022-08-18T02:09:23.891Z,15.88
2022-08-18T02:15:28.253Z,14.75
2022-08-18T02:21:33.258Z,15.10
2022-08-18T02:27:36.871Z,13.18
2022-08-18T02:39:52.198Z,12.80
2022-08-18T02:45:55.958Z,13.57
2022-08-18T02:51:59.802Z,13.50
2022-08-18T02:58:04.769Z,15.90
2022-08-18T03:04:10.062Z,12.35
2022-08-18T03:10:31.755Z,14.68
2022-08-18T03:16:53.397Z,12.95
2022-08-18T03:22:58.637Z,12.88
2022-08-18T03:29:02.666Z,13.00
2022-08-18T03:35:08.791Z,14.48
2022-08-18T03:41:14.458Z,14.05
2022-08-18T03:47:38.231Z,14.52
2022-08-18T03:53:44.331Z,12.75
2022-08-18T03:59:47.857Z,12.73
2022-08-18T04:11:56.958Z,11.77
2022-08-18T04:18:03.591Z,13.43
2022-08-18T04:24:12.010Z,13.35
2022-08-18T04:30:16.968Z,15.43
2022-08-18T04:36:20.936Z,13.40
2022-08-18T04:42:24.589Z,19.05
2022-08-18T04:54:39.137Z,14.82
2022-08-18T05:00:43.831Z,15.43
2022-08-18T05:06:48.806Z,14.02
2022-08-18T05:12:52.376Z,13.68
2022-08-18T05:25:01.496Z,13.93
2022-08-18T05:31:13.502Z,14.30
2022-08-18T05:37:32.370Z,15.95
2022-08-18T05:43:51.410Z,16.13
2022-08-18T05:49:58.311Z,16.75
2022-08-18T05:56:23.767Z,14.40
2022-08-18T06:02:36.360Z,14.20
2022-08-18T06:08:44.807Z,14.88
2022-08-18T06:14:48.388Z,13.15
2022-08-18T06:21:18.274Z,13.63
2022-08-18T06:27:31.169Z,14.00
2022-08-18T06:33:51.504Z,13.97
2022-08-18T06:39:57.299Z,13.63
2022-08-18T06:46:02.513Z,13.63
2022-08-18T06:52:25.507Z,14.13
2022-08-18T06:58:31.674Z,18.20
2022-08-18T07:04:41.802Z,19.95
2022-08-18T07:10:47.131Z,15.20
2022-08-18T07:16:58.981Z,14.73
2022-08-18T07:23:08.251Z,15.68
2022-08-18T07:29:15.651Z,14.68
2022-08-18T07:35:25.100Z,15.10
2022-08-18T07:41:35.635Z,15.23
2022-08-18T07:47:45.814Z,14.30
2022-08-18T07:53:58.015Z,14.60
2022-08-18T08:00:18.663Z,14.77
2022-08-18T08:06:35.096Z,13.88
2022-08-18T08:12:46.493Z,13.73
2022-08-18T08:18:59.478Z,14.02
2022-08-18T08:25:28.298Z,13.70
2022-08-18T08:31:44.438Z,14.00
2022-08-18T08:37:53.019Z,13.88
2022-08-18T08:44:06.851Z,14.18
2022-08-18T08:50:15.513Z,13.80
2022-08-18T08:56:23.014Z,12.90
2022-08-18T09:03:01.769Z,12.77
2022-08-18T09:09:23.498Z,12.70
2022-08-18T09:15:41.497Z,13.75
2022-08-18T09:21:51.222Z,11.82
2022-08-18T09:28:12.046Z,12.65
2022-08-18T09:34:35.275Z,12.13
2022-08-18T09:41:07.180Z,12.55
2022-08-18T09:47:12.926Z,12.50
2022-08-18T09:53:38.687Z,10.80
2022-08-18T10:06:16.097Z,11.65
2022-08-18T10:12:31.138Z,12.07
2022-08-18T10:18:48.125Z,11.30
2022-08-18T10:25:09.181Z,11.75
2022-08-18T10:31:23.921Z,11.75
2022-08-18T10:37:35.722Z,11.68
2022-08-18T10:43:55.678Z,11.30
2022-08-18T10:50:04.226Z,11.70
2022-08-18T10:56:26.504Z,11.98
2022-08-18T11:09:26.935Z,11.15
2022-08-18T11:15:40.960Z,12.10
2022-08-18T11:21:51.358Z,10.80
2022-08-18T11:27:56.502Z,12.18
2022-08-18T11:34:00.382Z,11.27
2022-08-18T11:40:17.680Z,10.52
2022-08-18T11:46:38.775Z,11.15
2022-08-18T11:52:53.976Z,11.15
2022-08-18T11:59:01.902Z,12.10
2022-08-18T12:05:10.448Z,12.40
2022-08-18T12:11:27.087Z,13.10
2022-08-18T12:17:34.051Z,12.23
2022-08-18T12:23:49.591Z,13.55
2022-08-18T12:29:58.383Z,12.38
2022-08-18T12:36:04.283Z,11.90
2022-08-18T12:42:08.028Z,12.25
2022-08-18T12:48:14.032Z,11.32
2022-08-18T12:54:20.551Z,11.25
2022-08-18T13:00:28.836Z,12.43
2022-08-18T13:06:35.871Z,12.32
2022-08-18T13:12:40.832Z,11.98
2022-08-18T13:18:47.191Z,11.18
2022-08-18T13:24:50.875Z,12.40
2022-08-18T13:30:57.355Z,12.30
2022-08-18T13:37:02.861Z,12.23
2022-08-18T13:43:09.309Z,11.68
2022-08-18T13:49:15.466Z,11.88
2022-08-18T13:55:23.574Z,12.20
2022-08-18T14:01:50.085Z,12.88
2022-08-18T14:07:53.711Z,12.32
2022-08-18T14:13:58.241Z,11.60
2022-08-18T14:20:22.187Z,11.45
2022-08-18T14:26:51.015Z,12.07
2022-08-18T14:32:54.865Z,12.23
2022-08-18T14:39:03.356Z,12.35
2022-08-18T14:45:17.676Z,12.23
2022-08-18T14:51:35.473Z,12.82
2022-08-18T14:57:39.911Z,11.27
2022-08-18T15:03:46.146Z,11.20
2022-08-18T15:10:15.227Z,11.32
2022-08-18T15:16:17.362Z,10.57
2022-08-18T15:22:39.777Z,11.38
2022-08-18T15:28:43.640Z,11.52
2022-08-18T15:34:51.269Z,11.65
2022-08-18T15:40:59.239Z,12.02
2022-08-18T15:47:12.635Z,12.93
2022-08-18T15:53:17.891Z,18.75
2022-08-18T15:59:22.826Z,14.85
2022-08-18T16:05:41.941Z,17.45
2022-08-18T16:11:45.484Z,14.82
2022-08-18T16:17:51.710Z,13.93
2022-08-18T16:23:55.847Z,14.07
2022-08-18T16:29:59.350Z,13.23
2022-08-18T16:36:10.268Z,12.93
2022-08-18T16:42:13.769Z,14.70
2022-08-18T16:48:17.342Z,14.43
2022-08-18T16:54:22.707Z,16.55
2022-08-18T17:00:45.248Z,16.02
2022-08-18T17:06:48.850Z,16.30
2022-08-18T17:12:53.836Z,14.25
2022-08-18T17:18:59.007Z,15.25
2022-08-18T17:25:04.174Z,13.48
2022-08-18T17:31:12.169Z,13.27
2022-08-18T17:37:18.277Z,18.48
2022-08-18T17:43:24.914Z,13.32
2022-08-18T17:49:48.187Z,13.00
2022-08-18T17:56:02.850Z,12.80
2022-08-18T18:02:16.585Z,13.20
2022-08-18T18:08:59.414Z,13.45
2022-08-18T18:15:07.454Z,14.07
2022-08-18T18:21:24.144Z,13.20
2022-08-18T18:27:50.106Z,12.95
2022-08-18T18:34:00.810Z,13.15
2022-08-18T18:40:18.640Z,14.07
2022-08-18T18:46:34.742Z,13.50
2022-08-18T18:52:52.874Z,13.05
2022-08-18T18:59:04.399Z,13.82
2022-08-18T19:05:21.647Z,13.15
2022-08-18T19:11:34.327Z,13.50
2022-08-18T19:17:43.389Z,13.73
2022-08-18T19:23:55.858Z,13.30
2022-08-18T19:30:03.119Z,13.17
2022-08-18T19:36:19.752Z,17.17
2022-08-18T19:42:35.281Z,14.45
2022-08-18T19:48:43.586Z,13.52
2022-08-18T19:55:02.133Z,14.95
2022-08-18T20:01:21.078Z,15.35
2022-08-18T20:08:07.235Z,13.57
2022-08-18T20:14:12.791Z,13.00
2022-08-18T20:20:18.649Z,14.20
2022-08-18T20:26:43.539Z,15.93
2022-08-18T20:33:09.200Z,13.98
2022-08-18T20:39:34.580Z,12.15
2022-08-18T20:45:42.706Z,12.13
2022-08-18T20:51:57.850Z,10.52
2022-08-18T20:58:08.250Z,9.93
2022-08-18T21:04:13.593Z,9.93
2022-08-18T21:10:23.659Z,8.85
2022-08-18T21:16:39.140Z,9.82
2022-08-18T21:22:44.967Z,9.02
2022-08-18T21:28:52.691Z,8.20
2022-08-18T21:34:57.829Z,8.43
2022-08-18T21:41:02.448Z,9.80
2022-08-18T21:47:10.141Z,7.75
2022-08-18T21:53:21.541Z,8.13
2022-08-18T21:59:25.087Z,8.48
2022-08-18T22:05:59.087Z,8.45
2022-08-18T22:12:37.837Z,8.50
2022-08-18T22:18:41.371Z,8.90
2022-08-18T22:24:45.033Z,8.95
2022-08-18T22:30:49.950Z,8.38
2022-08-18T22:36:59.846Z,12.05
2022-08-18T22:43:03.289Z,9.07
2022-08-18T22:49:08.150Z,8.80
2022-08-18T22:55:14.417Z,8.63
2022-08-18T23:01:17.962Z,8.02
2022-08-18T23:07:23.803Z,9.02
2022-08-18T23:13:27.307Z,9.15
2022-08-18T23:19:31.977Z,8.90
2022-08-18T23:25:37.016Z,7.95
2022-08-18T23:31:42.112Z,8.45
2022-08-18T23:37:46.768Z,9.50
2022-08-18T23:43:52.566Z,7.80
2022-08-18T23:49:56.132Z,8.38
2022-08-18T23:55:59.817Z,8.57
